Tiempo atmosférico en la estación meteorológica de Talavera De La Reina, Toledo (372 m.)



Fecha
DESCASC
Temp. máxima en grados centígrados (hora)
DESCASC
Temp. mínima en grados centígrados (hora)
DESCASC
Temp. media en grados centígrados
DESCASC
Racha de viento máxima en m/sg (hora)
DESCASC
Velocidad máxima media en intervalos de 10 minutos(hora)
DESCASC
Precipitaciones diarias en mm
DESCASC
Precipitaciones de 00:00 a 06:00 en mm
DESCASC
Precipitaciones de 06:00 a 12:00 en mm
DESCASC
Precipitaciones de 12:00 a 18:00 en mm
DESCASC
Precipitaciones de 18:00 a 24:00 en mm
DESCASC
20-09-2020 23.6 (18:20) 16.6 (04:20) 20.1 10.83 (17:10) 6.11 (18:40) 0.6 0.6 0 0 0
19-09-2020 23.6 (16:00) 16 (03:20) 19.8 13.06 (15:40) 6.67 (16:00) 1.6 1.6 0 0 0
17-09-2020 27 (18:20) 18.6 (00:00) 22.8 11.39 (20:30) 3.33 (20:40) 4.6 0 0 0 4.6
16-09-2020 32.6 (17:10) 15 (08:10) 23.8 7.5 (20:50) 3.33 (16:10) 0 0 0 0 0
15-09-2020 31.6 (17:00) 17.3 (00:00) 24.4 9.72 (17:30) 4.72 (17:30) -- -- 0 0 0
14-09-2020 33.6 (18:10) 20.8 (00:00) 27.2 13.89 (21:50) 5.56 (21:50) 2.6 0 0 0 2.6
13-09-2020 33.6 (19:00) 19.8 (00:00) 26.7 11.11 (11:40) 5.56 (12:40) 0 0 0 0 0
12-09-2020 35.4 (18:30) 17.1 (08:10) 26.3 8.61 (13:00) 5 (12:00) 0 0 0 0 0
11-09-2020 34.4 (18:00) 16.5 (00:00) 25.5 7.78 (11:20) 3.89 (12:20) 0 0 0 0 0
10-09-2020 33.2 (18:40) 14.3 (00:00) 23.8 7.78 (12:50) 4.17 (12:30) 0 0 0 0 0
09-09-2020 31.8 (18:50) 14.2 (08:30) 23 9.72 (12:20) 4.72 (12:20) 0 0 0 0 0
08-09-2020 29.2 (18:10) 16.2 (00:00) 22.7 13.06 (06:00) 5.28 (08:50) 0 0 0 0 0
07-09-2020 31.4 (18:00) 18 (07:30) 24.7 10.83 (12:10) 6.39 (12:30) 0 0 0 0 0
06-09-2020 35.9 (17:40) 17.5 (00:00) 26.7 8.89 (13:20) 4.72 (12:40) 0 0 0 0 0
05-09-2020 35.3 (18:10) 16.6 (00:00) 25.9 8.33 (11:10) 4.44 (13:20) 0 0 0 0 0
04-09-2020 34.5 (17:20) 17.8 (00:00) 26.1 10.83 (11:30) 5.28 (11:20) 0 0 0 0 0
03-09-2020 34 (18:40) 14.7 (00:00) 24.3 8.89 (11:30) 4.72 (11:30) 0 0 0 0 0
02-09-2020 32.8 (19:20) 14.3 (00:00) 23.5 10 (11:00) 5 (11:50) 0 0 0 0 0
01-09-2020 31.2 (18:40) 13.5 (00:00) 22.4 6.39 (16:20) 2.78 (16:50) 0 0 0 0 0
31-08-2020 29.1 (18:20) 12.4 (00:00) 20.8 8.89 (07:50) 4.17 (10:40) 0 0 0 0 0
30-08-2020 26.6 (17:20) 12.2 (00:00) 19.4 8.33 (11:00) 5 (10:20) 0 0 0 0 0
29-08-2020 27 (18:50) 13.4 (00:00) 20.2 10 (20:50) 4.44 (20:40) 0 0 0 0 0
28-08-2020 33.8 (17:00) 17.4 (00:00) 25.6 14.17 (17:30) 8.61 (18:30) 0 0 0 0 0
27-08-2020 39.4 (18:20) 16.7 (00:00) 28.1 8.06 (17:10) 4.17 (18:30) 0 0 0 0 0
26-08-2020 39.4 (18:30) 16.8 (00:00) 28.1 8.61 (15:40) 4.17 (19:40) 0 0 0 0 0
25-08-2020 39.1 (18:00) 18 (00:00) 28.5 9.17 (19:00) 4.72 (19:00) 0 0 0 0 0
24-08-2020 36.5 (18:10) 16.4 (04:20) 26.4 8.33 (12:00) 4.44 (12:10) 0 0 0 0 0

Gráficas

Temp. máximas Temp. mínimas Temp. medias Precipitaciones Rachas de viento máximas Velocidades máximas media en intervalos de 10 minutos

Datos horarios

Fecha y hora oficial Temperatura (ºC) Velocidad del viento (km/h) Dirección del viento Racha (km/h) Dirección de racha Precipitación (mm) Presión (hPa) Tendencia (hPa) Humedad (%)
2020-09-22 23:00:00 19.4 8 Sudoeste 11 Sudoeste 0 971.7 1.1 66
2020-09-22 22:00:00 19.4 4 Oeste 11 Noroeste 0 971.1 0.6 65
2020-09-22 21:00:00 21.5 5 Oeste 20 Noroeste 0 970.8 -- 57
2020-09-22 20:00:00 24.1 13 Oeste 32 Oeste 0 970.6 -- 44
2020-09-22 19:00:00 25.5 19 Oeste 33 Oeste 0 970.5 -- 42
2020-09-22 18:00:00 26.3 22 Oeste 36 Noroeste 0 970.6 -- 37
2020-09-22 17:00:00 26.6 13 Noroeste 33 Oeste 0 971 -- 38
2020-09-22 16:00:00 25.5 12 Oeste 28 Sudoeste 0 971.8 -- 40
2020-09-22 15:00:00 24.1 13 Oeste 27 Oeste 0 972.6 -- 46
2020-09-22 14:00:00 23 12 Oeste 26 Oeste 0 973.3 -- 50
2020-09-22 13:00:00 22.1 11 Oeste 22 Oeste 0 973.9 -- 55
2020-09-22 12:00:00 20.2 7 Oeste 13 Sudoeste 0 974.1 -- 58
2020-09-22 11:00:00 19.1 3 Sudoeste 7 Nordeste 0 974 -- 66
2020-09-22 10:00:00 15.8 2 Este 6 Nordeste 0 973.8 -- 81
2020-09-22 09:00:00 13.1 0 Calma 4 Nordeste 0 973.6 -- 88
2020-09-22 08:00:00 12.8 0 Calma 5 Nordeste 0 973.2 -- 87
2020-09-22 07:00:00 13.4 3 Este 7 Nordeste 0 973 -- 87
2020-09-22 06:00:00 13.3 0 Calma 6 Nordeste 0 972.9 -- 87
2020-09-22 05:00:00 13.2 2 Este 5 Este 0 973.2 -- 88
2020-09-22 04:00:00 13.6 0 Calma 5 Oeste 0 973.6 -- 87
2020-09-22 03:00:00 14.3 3 Oeste 8 Sur 0 973.9 -- 85
2020-09-22 02:00:00 14.5 3 Oeste 4 Oeste 0 974.2 -- 83
2020-09-22 01:00:00 15.7 0 Calma 12 Oeste 0 974.1 -- 79
2020-09-22 00:00:00 16.9 5 Sudoeste 12 Sudoeste 0 974.1 -- 69
2020-09-21 23:00:00 18.6 4 Sudoeste 12 Sudoeste 0 973.9 -- 62
2020-09-21 22:00:00 18 4 Oeste 12 Noroeste 0 973.8 -- 63
2020-09-21 21:00:00 19.7 5 Oeste 22 Oeste 0 973.6 -- 57
2020-09-21 20:00:00 23.7 11 Oeste 26 Oeste 0 973.4 -- 37
2020-09-21 19:00:00 25.4 14 Oeste 26 Oeste 0 973.3 -- 35
2020-09-21 18:00:00 25.7 13 Oeste 27 Oeste 0 973.5 -- 35
2020-09-21 17:00:00 25.6 8 Oeste 29 Oeste 0 973.9 -- 33
2020-09-21 16:00:00 24.6 10 Oeste 28 Oeste 0 974.3 -- 45
2020-09-21 15:00:00 24 9 Oeste 24 Oeste 0 975 -- 46
2020-09-21 14:00:00 23.1 12 Oeste 23 Oeste 0 975.6 -- 51
2020-09-21 13:00:00 21.8 9 Oeste 23 Oeste 0 975.9 -- 57
2020-09-21 12:00:00 20.2 5 Oeste 13 Oeste 0 976.2 -- 70
2020-09-21 11:00:00 17.8 3 Oeste 6 Este 0 976.1 -- 81
2020-09-21 10:00:00 15.1 2 Este 4 Este 0 975.8 -- 91
2020-09-21 09:00:00 13.5 3 Nordeste 6 Este 0.2 975.6 -- 92
2020-09-21 08:00:00 13.6 4 Nordeste 6 Nordeste 0 975 -- 92
2020-09-21 07:00:00 13.7 2 Nordeste 7 Nordeste 0 974.8 -- 91
2020-09-21 06:00:00 14.1 0 Calma 5 Nordeste 0 974.8 -- 91
2020-09-21 05:00:00 14.5 3 Este 6 Nordeste 0 974.7 -- 91
2020-09-21 04:00:00 14.5 2 Nordeste 4 Nordeste 0 975 -- 90
2020-09-21 03:00:00 14.7 0 Calma 5 Este 0 975.3 -- 89
2020-09-21 02:00:00 15.4 0 Calma 6 Noroeste 0 975.3 -- 89
2020-09-21 01:00:00 16.1 2 Este 5 Este 0 975.4 -- 88
2020-09-21 00:00:00 17.1 3 Sudoeste 11 Oeste 0 975.3 -- 85
2020-09-20 23:00:00 17.6 2 Noroeste 8 Oeste 0 975.3 -- 83
2020-09-20 22:00:00 19.1 2 Sudoeste 8 Sudoeste 0 975 -- 77
2020-09-20 21:00:00 21.3 5 Sudoeste 21 Oeste 0 974.4 -- 65
2020-09-20 20:00:00 22.6 15 Oeste 31 Oeste 0 974.1 -- 58
2020-09-20 19:00:00 23.3 22 Oeste 37 Oeste 0 973.9 -- 57
2020-09-20 18:00:00 23 16 Oeste 39 Oeste 0 974.1 -- 58
2020-09-20 17:00:00 22.4 20 Oeste 36 Oeste 0 974.5 -- 60
2020-09-20 16:00:00 22 21 Oeste 38 Oeste 0 975 -- 69
2020-09-20 15:00:00 21.5 14 Oeste 30 Sudoeste 0 975.4 -- 68
2020-09-20 14:00:00 19.6 13 Sudoeste 34 Oeste 0 976.1 -- 79
2020-09-20 13:00:00 19.7 15 Oeste 31 Oeste 0 976.3 -- 77
2020-09-20 12:00:00 19.1 13 Oeste 26 Sudoeste 0 976.1 -- 77
2020-09-20 11:00:00 18.4 14 Oeste 24 Oeste 0 975.9 -- 81
2020-09-20 10:00:00 18.1 9 Oeste 17 Sudoeste 0 975.5 -- 80
2020-09-20 09:00:00 17.3 5 Oeste 12 Oeste 0 975.2 -- 84
2020-09-20 08:00:00 17 5 Oeste 10 Oeste 0 974.8 -- 88
2020-09-20 07:00:00 17.5 7 Oeste 14 Oeste 0 974.8 -- 88
2020-09-20 06:00:00 17.3 7 Oeste 15 Oeste 0 974.9 -- 88
2020-09-20 05:00:00 16.7 2 Sudoeste 5 Sudoeste 0 974.9 -- 89
2020-09-20 04:00:00 17 0 Calma 6 Noroeste 0 975.3 -- 87
2020-09-20 03:00:00 17.9 0 Calma 18 Oeste 0.6 975.5 -- 86
2020-09-20 02:00:00 18.6 4 Oeste 18 Noroeste 0 975.6 -- 80
2020-09-20 01:00:00 18.8 3 Noroeste 15 Oeste 0 975.4 -- 76
2020-09-20 00:00:00 18.6 0 Calma 6 Sudoeste 0 975.2 -- 78
2020-09-19 23:00:00 19.4 3 Oeste 17 Noroeste 0 975 -- 68
2020-09-19 22:00:00 19.4 5 Oeste 11 Oeste 0 974.4 -- 67
2020-09-19 21:00:00 20 2 Noroeste 11 Noroeste 0 973.7 -- 64
2020-09-19 20:00:00 21.5 5 Noroeste 18 Noroeste 0 973.4 -- 58
2020-09-19 19:00:00 22.1 13 Oeste 29 Oeste 0 973.1 -- 56
2020-09-19 18:00:00 22.8 10 Oeste 34 Oeste 0 973 -- 55
2020-09-19 17:00:00 22.9 17 Oeste 37 Oeste 0 973.1 -- 51
2020-09-19 16:00:00 23.5 24 Oeste 47 Noroeste 0 973.2 -- 53
2020-09-19 15:00:00 21.8 19 Oeste 39 Oeste 0 973.5 -- 61
2020-09-19 14:00:00 20.5 19 Oeste 36 Oeste 0 973.9 -- 64
2020-09-19 13:00:00 20.2 18 Oeste 36 Oeste 0 973.8 -- 68
2020-09-19 12:00:00 18.9 17 Oeste 34 Oeste 0 973.7 -- 70
2020-09-19 11:00:00 18.1 9 Oeste 23 Oeste 0 973.2 -- 79
2020-09-19 10:00:00 17.8 11 Oeste 21 Oeste 0 972.5 -- 79
2020-09-19 09:00:00 16.8 9 Sudoeste 19 Oeste 0 971.7 -- 84
2020-09-19 08:00:00 16.9 9 Oeste 17 Oeste 0 971.2 -- 84
2020-09-19 07:00:00 17 9 Sudoeste 22 Sudoeste 0 970.6 -- 84
2020-09-19 06:00:00 16.6 5 Sudoeste 12 Sudoeste 0 970.5 -- 87
2020-09-19 05:00:00 16.3 3 Oeste 9 Sur 0 970.4 -- 91
2020-09-19 04:00:00 16.2 3 Este 6 Este 0 970.7 -- 92
2020-09-19 03:00:00 16.1 2 Nordeste 8 Sur 0.2 970.8 -- 91
2020-09-19 02:00:00 16.3 2 Sudoeste 11 Sudeste 0.2 971 -- 91
2020-09-19 01:00:00 16.2 2 Sudoeste 9 Norte 1.2 970.6 -- 91
2020-09-19 00:00:00 16.3 4 Noroeste 30 Noroeste 7.2 970.5 -- 91
2020-09-18 23:00:00 16.4 13 Este 27 Este 1 969.3 -- 89
2020-09-18 22:00:00 16.3 8 Nordeste 22 Este 2.8 969.7 -- 90
2020-09-18 21:00:00 17 5 Este 15 Nordeste 0.4 969.8 -- 90
2020-09-18 20:00:00 17.3 6 Este 17 Este 0.2 969.7 -- 88
2020-09-18 19:00:00 17.7 11 Sudeste 19 Este 0 969.9 -- 83
2020-09-18 18:00:00 16.9 9 Este 22 Nordeste 3.2 970.3 -- 89
2020-09-18 17:00:00 16.1 8 Sudoeste 45 Sudoeste 17.6 971.5 -- 89
2020-09-18 16:00:00 21.4 4 Este 12 Nordeste 0 968.3 -- 72
2020-09-18 15:00:00 22.8 2 Norte 10 Noroeste 0 969 -- 61
2020-09-18 14:00:00 22.7 5 Norte 12 Norte 0 969.8 -- 61
2020-09-18 13:00:00 22.1 6 Sudoeste 13 Oeste 0 970.1 -- 63
2020-09-18 12:00:00 21.2 3 Nordeste 8 Este 0 970.5 -- 73
2020-09-18 11:00:00 18.1 2 Sudeste 6 Este 0 970.5 -- 88
2020-09-18 10:00:00 16.9 2 Nordeste 9 Sur 0 970.2 -- 91
2020-09-18 09:00:00 16.3 3 Sudeste 18 Oeste 1.6 969.4 -- 91
2020-09-18 08:00:00 16.1 15 Oeste 23 Oeste 7.2 968.8 -- 91
2020-09-18 07:00:00 16.5 3 Sudoeste 9 Sudeste 0.2 968.2 -- 90
2020-09-18 06:00:00 16.4 4 Sudeste 13 Norte 1 968.3 -- 89
2020-09-18 05:00:00 16 8 Noroeste 32 Oeste 3.8 968.5 -- 87
2020-09-18 04:00:00 18.2 6 Noroeste 23 Oeste 2 969 -- 90
2020-09-18 03:00:00 18.3 3 Este 20 Este 9.6 968.3 -- 88
2020-09-18 02:00:00 18.8 8 Este 14 Este 0.2 968.5 -- 90
2020-09-18 01:00:00 18.6 5 Nordeste 9 Este 0 969.1 -- 90
2020-09-18 00:00:00 18.6 3 Este 7 Nordeste 0 969.5 -- 89
2020-09-17 23:00:00 18.6 4 Nordeste 24 Oeste 4 969.8 -- 88
2020-09-17 22:00:00 19.6 4 Norte 22 Este 0 969.8 -- 80
2020-09-17 21:00:00 20.4 5 Este 41 Sur 0.6 968.6 -- 80
2020-09-17 20:00:00 24.8 3 Este 17 Sudeste 0 968.1 -- 53
2020-09-17 19:00:00 26.4 6 Sudeste 19 Sudeste 0 967.9 -- 45
2020-09-17 18:00:00 26.7 5 Nordeste 13 Nordeste 0 968.7 -- 47
2020-09-17 17:00:00 25.5 6 Nordeste 12 Nordeste 0 969.4 -- 52
2020-09-17 16:00:00 25.5 4 Este 15 Sudeste 0 970 -- 49
2020-09-17 15:00:00 24.6 3 Oeste 23 Sudoeste 0 970.9 -- 55
2020-09-17 14:00:00 25.2 7 Sudeste 21 Este 0 971.2 -- 49
2020-09-17 13:00:00 25.4 8 Este 24 Este 0 971.6 -- 53
2020-09-17 12:00:00 23.6 10 Este 23 Sudeste 0 972.2 -- 63
2020-09-17 11:00:00 22.2 10 Este 26 Este 0 972.4 -- 65
2020-09-17 10:00:00 20.3 6 Este 24 Este 0 972.4 -- 72
2020-09-17 09:00:00 19.3 4 Este 15 Nordeste 0 972 -- 76
2020-09-17 08:00:00 19.1 5 Este 18 Sudeste 0 971.8 -- 74
2020-09-17 07:00:00 19.9 6 Este 28 Este 0 972 -- 70
2020-09-17 06:00:00 21.2 5 Este 20 Sudeste 0 971.8 -- 60
2020-09-17 05:00:00 21.8 7 Sudeste 20 Sudeste 0 972.2 -- 59
2020-09-17 04:00:00 22.1 3 Este 24 Este 0 972.1 -- 59
2020-09-17 03:00:00 22.4 5 Este 22 Este 0 972.3 -- 57
2020-09-17 02:00:00 22.3 2 Nordeste 17 Este 0 972.3 -- 58
2020-09-17 01:00:00 22.5 6 Nordeste 18 Nordeste 0 972.5 -- 58
2020-09-17 00:00:00 22.7 3 Este 17 Sudoeste 0 971.5 -- 58
2020-09-16 23:00:00 24.4 8 Oeste 20 Noroeste 0 971.9 -- 45
2020-09-16 22:00:00 25 0 Calma 11 Nordeste 0 971.3 -- 46
2020-09-16 21:00:00 27.8 7 Este 27 Este 0 970.7 -- 32
2020-09-16 20:00:00 27.4 2 Oeste 6 Noroeste 0 971 -- 44
2020-09-16 19:00:00 30.1 3 Nordeste 17 Este 0 971 -- 33
2020-09-16 18:00:00 31.3 4 Nordeste 20 Este 0 971.3 -- 26
2020-09-16 17:00:00 32.5 5 Sudeste 26 Este 0 971.9 -- 23
2020-09-16 16:00:00 31.6 6 Nordeste 20 Norte 0 972.7 -- 26
2020-09-16 15:00:00 30.8 6 Este 20 Este 0 973.7 -- 29
2020-09-16 14:00:00 29.6 11 Este 25 Este 0 974.7 -- 31
2020-09-16 13:00:00 27.8 7 Este 20 Este 0 975.5 -- 35
2020-09-16 12:00:00 24.6 5 Este 14 Este 0 976.1 -- 44
2020-09-16 11:00:00 21.5 4 Este 11 Este 0 976.4 -- 55
2020-09-16 10:00:00 18.3 4 Este 10 Nordeste 0 976.4 -- 68
2020-09-16 09:00:00 15.6 3 Este 10 Este 0 976.5 -- 77
2020-09-16 08:00:00 15.2 3 Este 8 Nordeste 0 976 -- 79
2020-09-16 07:00:00 15.8 3 Este 5 Este 0 976 -- 78
2020-09-16 06:00:00 16.3 3 Este 7 Nordeste 0 976.2 -- 79
2020-09-16 05:00:00 15.9 0 Calma 3 Sudeste 0 976.3 -- 83
2020-09-16 04:00:00 17 0 Calma 5 Este 0 976.7 -- 77
2020-09-16 03:00:00 16.8 2 Este 3 Este 0 976.6 -- 81
2020-09-16 02:00:00 18.3 3 Oeste 5 Noroeste 0 976.7 -- 71
2020-09-16 01:00:00 18.7 2 Oeste 8 Sudoeste 0 976.5 -- 70
2020-09-16 00:00:00 20 3 Oeste 5 Oeste 0 976.5 -- 65
2020-09-15 23:00:00 22.8 3 Sudeste 11 Noroeste 0 976.2 -- 53
2020-09-15 22:00:00 24.7 7 Oeste 14 Oeste 0 975.8 -- 45
2020-09-15 21:00:00 26.2 3 Noroeste 18 Noroeste 0 975.5 -- 40
2020-09-15 20:00:00 29.4 5 Noroeste 22 Oeste 0 975.3 -- 31
2020-09-15 19:00:00 31 11 Oeste 26 Oeste 0 975.3 -- 24
2020-09-15 18:00:00 31.4 14 Oeste 35 Oeste 0 975.5 -- 25
2020-09-15 17:00:00 31.4 16 Oeste 30 Oeste 0 976 -- 27
2020-09-15 16:00:00 30.7 8 Oeste 23 Oeste 0 976.6 -- 31
2020-09-15 15:00:00 29.4 5 Sur 17 Noroeste 0 977.4 -- 34
2020-09-15 14:00:00 27.5 4 Norte 15 Norte 0 978 -- 42
2020-09-15 13:00:00 26.3 5 Nordeste 12 Nordeste 0 978.7 -- 50
2020-09-15 12:00:00 24.6 4 Nordeste 10 Nordeste 0 979.2 -- 54
2020-09-15 11:00:00 22.3 4 Nordeste 10 Nordeste 0 979 -- 72
2020-09-15 10:00:00 20.2 3 Este 8 Este 0 978.6 -- 79
2020-09-15 09:00:00 17.6 3 Este 8 Este 0 978.2 -- 88
2020-09-15 08:00:00 17.4 3 Nordeste 5 Este 0 977.5 -- 88
2020-09-15 07:00:00 18 3 Este 6 Sudeste 0 977.1 -- 86
2020-09-15 06:00:00 18.5 3 Sudeste 7 Nordeste 0 977.2 -- 86
2020-09-15 05:00:00 18.4 2 Sudeste 6 Sudeste 0.2 977.2 -- 86
2020-09-15 04:00:00 18.2 3 Oeste 5 Norte 0 977 -- 85
2020-09-15 03:00:00 19.1 0 Calma 8 Sudoeste 0 976.8 -- 82
2020-09-15 02:00:00 20.8 4 Sudoeste -- -- -- 976.8 -- 73
2020-09-15 01:00:00 21.2 4 Sudoeste 21 Oeste 0 976.7 -- 72
2020-09-15 00:00:00 21.7 7 Sudoeste 21 Sudoeste 0 976 -- 72
2020-09-14 23:00:00 22.3 5 Noroeste 34 Noroeste 2.6 975 -- 70
2020-09-14 22:00:00 27.3 19 Oeste 50 Oeste 0 974.7 -- 34
2020-09-14 21:00:00 29.6 9 Este 19 Sudeste 0 973.5 -- 27
2020-09-14 20:00:00 30.1 4 Nordeste 9 Nordeste 0 973.4 -- 29
2020-09-14 19:00:00 32.4 5 Este 20 Este 0 973.8 -- 25
2020-09-14 18:00:00 33.3 7 Este 20 Nordeste 0 974.2 -- 21
2020-09-14 17:00:00 33.3 7 Este 22 Este 0 975 -- 22
2020-09-14 16:00:00 32 10 Nordeste 26 Este 0 975.9 -- 24
2020-09-14 15:00:00 31.4 9 Este 28 Este 0 976.9 -- 26
2020-09-14 14:00:00 30.3 10 Este 28 Este 0 977.7 -- 29
2020-09-14 13:00:00 27.7 9 Este 23 Este 0 978.4 -- 34
2020-09-14 12:00:00 25.3 8 Este 31 Este 0 978.9 -- 42
2020-09-14 11:00:00 24.1 13 Este 35 Este 0 978.3 -- 44
2020-09-14 10:00:00 22.9 12 Este 27 Este 0 978.1 -- 48
2020-09-14 09:00:00 21.5 8 Este 27 Este 0 978.1 -- 50
2020-09-14 08:00:00 21.4 8 Este 19 Este 0 977.4 -- 49
2020-09-14 07:00:00 21.5 6 Este 19 Este 0 976.9 -- 47
2020-09-14 06:00:00 21.6 5 Este 17 Este 0 977 -- 46
2020-09-14 05:00:00 22 6 Este 14 Este 0 977.3 -- 43
2020-09-14 04:00:00 22.1 5 Este 16 Sudeste 0 977.3 -- 42
2020-09-14 03:00:00 21.1 4 Nordeste 10 Sudeste 0 977.1 -- 45
2020-09-14 02:00:00 23.3 6 Este 10 Este 0 977.2 -- 35
2020-09-14 01:00:00 24.4 4 Este 11 Nordeste 0 977 -- 32
2020-09-14 00:00:00 25.3 8 Nordeste 13 Este 0 976.7 -- 30
2020-09-13 23:00:00 24.9 5 Este 14 Sudeste 0 976.3 -- 31
2020-09-13 22:00:00 24.7 5 Este 13 Este 0 975.6 -- 33
2020-09-13 21:00:00 26.3 3 Nordeste 10 Nordeste 0 975.2 -- 36
2020-09-13 20:00:00 30.6 6 Nordeste 16 Nordeste 0 975.4 -- 26
2020-09-13 19:00:00 33.4 8 Nordeste 21 Nordeste 0 975.5 -- 22
2020-09-13 18:00:00 32.5 6 Este 22 Nordeste 0 975.9 -- 22
2020-09-13 17:00:00 32 7 Este 19 Nordeste 0 976.4 -- 23
2020-09-13 16:00:00 31.8 8 Este 25 Nordeste 0 977.1 -- 24
2020-09-13 15:00:00 31.7 13 Este 29 Sudeste 0 977.4 -- 24
2020-09-13 14:00:00 31 15 Este 31 Este 0 978 -- 26
2020-09-13 13:00:00 29.2 15 Este 35 Este 0 978.6 -- 29
2020-09-13 12:00:00 26.7 19 Este 40 Sudeste 0 978.8 -- 34
2020-09-13 11:00:00 26 19 Este 36 Sudeste 0 978.4 -- 35
2020-09-13 10:00:00 23.5 7 Este 16 Este 0 978.2 -- 43
2020-09-13 09:00:00 21.7 6 Este 26 Este 0 978 -- 45
2020-09-13 08:00:00 22.1 8 Este 27 Este 0 977.3 -- 44
2020-09-13 07:00:00 22.8 9 Este 31 Este 0 976.7 -- 41
2020-09-13 06:00:00 23.6 12 Este 35 Este 0 976.1 -- 36
2020-09-13 05:00:00 23.3 10 Este 30 Este 0 975.9 -- 32
2020-09-13 04:00:00 21.7 8 Este 21 Este 0 975.4 -- 33
2020-09-13 03:00:00 21.4 5 Este 18 Nordeste 0 975.2 -- 33
2020-09-13 02:00:00 20.9 4 Este 10 Nordeste 0 975 -- 37
2020-09-13 01:00:00 21.9 5 Nordeste 8 Este 0 974.9 -- 35
2020-09-13 00:00:00 22.5 4 Nordeste 7 Nordeste 0 974.5 -- 34
2020-09-12 23:00:00 22.1 4 Nordeste 6 Este 0 974.4 -- 41
2020-09-12 22:00:00 23.6 4 Este 6 Este 0 973.6 -- 38
2020-09-12 21:00:00 26.2 2 Nordeste 10 Nordeste 0 973 -- 35
2020-09-12 20:00:00 30 3 Este 11 Este 0 972.8 -- 25
2020-09-12 19:00:00 34.3 4 Este 10 Nordeste 0 972.7 -- 15
2020-09-12 18:00:00 34.8 4 Nordeste 15 Nordeste 0 972.8 -- 16
2020-09-12 17:00:00 34.9 5 Este 19 Sudeste 0 973 -- 15
2020-09-12 16:00:00 34.2 10 Este 25 Este 0 973.4 -- 16
2020-09-12 15:00:00 33.6 9 Este 27 Este 0 973.9 -- 19
2020-09-12 14:00:00 31.9 15 Este 30 Este 0 974.4 -- 22
2020-09-12 13:00:00 29.9 14 Este 31 Este 0 974.8 -- 26
2020-09-12 12:00:00 27.2 18 Este 30 Este 0 974.9 -- 31
2020-09-12 11:00:00 24.9 14 Este 29 Este 0 974.5 -- 35
2020-09-12 10:00:00 21.1 5 Este 12 Nordeste 0 974.3 -- 46
2020-09-12 09:00:00 17.7 5 Este 11 Nordeste 0 973.8 -- 52
2020-09-12 08:00:00 17.4 5 Este 10 Este 0 972.9 -- 49
2020-09-12 07:00:00 18.3 5 Este 12 Nordeste 0 972.5 -- 46
2020-09-12 06:00:00 18 4 Este 9 Nordeste 0 972.3 -- 47
2020-09-12 05:00:00 18 3 Este 13 Nordeste 0 972.1 -- 48
2020-09-12 04:00:00 18.1 5 Este 12 Este 0 971.9 -- 50
2020-09-12 03:00:00 18.8 5 Este 8 Este 0 971.6 -- 48
2020-09-12 02:00:00 17.4 3 Nordeste 6 Nordeste 0 971.4 -- 60
2020-09-12 01:00:00 18.3 3 Norte 5 Norte 0 971.2 -- 57
2020-09-12 00:00:00 20 0 Calma 4 Este 0 970.7 -- 49
2020-09-11 23:00:00 20.9 2 Este 5 Este 0 970.4 -- 49
2020-09-11 22:00:00 22.5 0 Calma 4 Sudeste 0 970 -- 47
2020-09-11 21:00:00 26.5 2 Noroeste 9 Oeste 0 969.5 -- 38
2020-09-11 20:00:00 32.6 3 Sur 11 Sur 0 969.4 -- 17
2020-09-11 19:00:00 33.8 5 Sudoeste 14 Sudeste 0 969.7 -- 15
2020-09-11 18:00:00 34.4 3 Sur 14 Oeste 0 969.9 -- 15
2020-09-11 17:00:00 33.2 4 Noroeste 12 Noroeste 0 970.5 -- 17
2020-09-11 16:00:00 32.2 3 Noroeste 11 Sudoeste 0 971.1 -- 20
2020-09-11 15:00:00 32.1 3 Este 18 Sudeste 0 971.5 -- 23
2020-09-11 14:00:00 30.2 6 Este 21 Este 0 972.2 -- 27
2020-09-11 13:00:00 28.1 10 Este 26 Este 0 972.9 -- 31
2020-09-11 12:00:00 26.7 9 Este 28 Este 0 973.3 -- 31
2020-09-11 11:00:00 24.3 11 Este 25 Este 0 973.2 -- 32
2020-09-11 10:00:00 20.7 4 Este 9 Nordeste 0 973 -- 42
2020-09-11 09:00:00 17.1 5 Este 10 Nordeste 0 972.7 -- 53
2020-09-11 08:00:00 16.9 5 Este 10 Nordeste 0 972.5 -- 53
2020-09-11 07:00:00 16.7 3 Nordeste 8 Este 0 972.1 -- 53
2020-09-11 06:00:00 17.2 3 Este 6 Nordeste 0 972 -- 51
2020-09-11 05:00:00 17.3 4 Este 13 Nordeste 0 972 -- 48
2020-09-11 04:00:00 17.3 4 Este 9 Este 0 972.3 -- 50
2020-09-11 03:00:00 16.8 4 Este 9 Este 0 972.4 -- 55
2020-09-11 02:00:00 18.8 3 Nordeste 6 Nordeste 0 972.5 -- 47
2020-09-11 01:00:00 19 4 Este 6 Nordeste 0 972.6 -- 49
2020-09-11 00:00:00 19 2 Este 4 Norte 0 972.6 -- 52
2020-09-10 23:00:00 19.7 2 Nordeste 4 Oeste 0 972.6 -- 54
2020-09-10 22:00:00 22 0 Calma 4 Noroeste 0 972.2 -- 45
2020-09-10 21:00:00 25.2 0 Calma 9 Norte 0 971.8 -- 39
2020-09-10 20:00:00 30.2 3 Norte 9 Norte 0 972 -- 33
2020-09-10 19:00:00 32.8 3 Noroeste 9 Norte 0 972.3 -- 19
2020-09-10 18:00:00 32.8 4 Sur 17 Sudeste 0 972.8 -- 17
2020-09-10 17:00:00 32.2 7 Sur 22 Sudeste 0 973.3 -- 17
2020-09-10 16:00:00 31.7 4 Sudeste 15 Sudeste 0 974.3 -- 21
2020-09-10 15:00:00 30.5 5 Este 21 Este 0 974.9 -- 23
2020-09-10 14:00:00 29.3 6 Este 26 Este 0 975.9 -- 27
2020-09-10 13:00:00 27.6 13 Sudeste 28 Este 0 976.9 -- 29
2020-09-10 12:00:00 25.7 12 Este 27 Sudeste 0 977.4 -- 34
2020-09-10 11:00:00 23.7 8 Este 21 Sudeste 0 977.5 -- 39
2020-09-10 10:00:00 20.5 4 Este 10 Este 0 977.3 -- 49
2020-09-10 09:00:00 15.8 4 Este 7 Nordeste 0 976.9 -- 58
2020-09-10 08:00:00 15.5 4 Nordeste 8 Nordeste 0 976.1 -- 56
2020-09-10 07:00:00 14.7 3 Nordeste 6 Nordeste 0 975.9 -- 55
2020-09-10 06:00:00 15 4 Nordeste 6 Nordeste 0 975.9 -- 53
2020-09-10 05:00:00 15.8 4 Este 18 Este 0 976.1 -- 51
2020-09-10 04:00:00 15.6 3 Este 8 Nordeste 0 976.1 -- 56
2020-09-10 03:00:00 14.3 2 Este 5 Noroeste 0 976.3 -- 68
2020-09-10 02:00:00 15.3 2 Sudeste 4 Oeste 0 976.3 -- 64
2020-09-10 01:00:00 16.5 0 Calma 9 Sudoeste 0 976.5 -- 58
2020-09-10 00:00:00 17.6 2 Sudeste 5 Noroeste 0 976.4 -- 54
2020-09-09 23:00:00 18.8 0 Calma 9 Norte 0 976.2 -- 53
2020-09-09 22:00:00 20.7 2 Norte 4 Nordeste 0 975.9 -- 45
2020-09-09 21:00:00 24.2 2 Noroeste 7 Oeste 0 975.3 -- 41
2020-09-09 20:00:00 29.3 3 Norte 8 Noroeste 0 975.3 -- 26
2020-09-09 19:00:00 31.4 3 Nordeste 14 Este 0 975.3 -- 17
2020-09-09 18:00:00 31.1 5 Este 14 Este 0 975.5 -- 15
2020-09-09 17:00:00 30.7 5 Este 13 Norte 0 976.3 -- 16
2020-09-09 16:00:00 29.7 6 Norte 17 Sudeste 0 976.7 -- 21
2020-09-09 15:00:00 29 7 Nordeste 19 Nordeste 0 977.4 -- 21
2020-09-09 14:00:00 28.2 7 Este 23 Sudeste 0 978 -- 25
2020-09-09 13:00:00 26.6 11 Este 35 Este 0 978.8 -- 28
2020-09-09 12:00:00 24.9 16 Sudeste 29 Sudeste 0 979.2 -- 31
2020-09-09 11:00:00 22.7 12 Este 23 Este 0 979.3 -- 35
2020-09-09 10:00:00 19.1 5 Este 13 Este 0 978.8 -- 47
2020-09-09 09:00:00 15.2 4 Este 9 Nordeste 0 978.5 -- 58
2020-09-09 08:00:00 15.2 0 Calma 21 Este 0 978 -- 55
2020-09-09 07:00:00 17.6 8 Este 21 Este 0 977.7 -- 47
2020-09-09 06:00:00 16.1 5 Este 12 Este 0 977.6 -- 53
2020-09-09 05:00:00 15.2 4 Este 7 Nordeste 0 977.7 -- 53
2020-09-09 04:00:00 15.4 3 Este 14 Este 0 977.5 -- 53
2020-09-09 03:00:00 16.2 3 Este 8 Este 0 977.3 -- 48
2020-09-09 02:00:00 16.5 4 Este 10 Nordeste 0 977.2 -- 48
2020-09-09 01:00:00 17.3 4 Nordeste 7 Este 0 977.5 -- 44
2020-09-09 00:00:00 18.9 4 Este 7 Sudeste 0 977.5 -- 37
2020-09-08 23:00:00 19.6 3 Este 8 Nordeste 0 977.3 -- 36
2020-09-08 22:00:00 20.4 3 Este 7 Este 0 976.8 -- 39
2020-09-08 21:00:00 23.3 4 Este 13 Este 0 976.3 -- 30
2020-09-08 20:00:00 27.4 6 Nordeste 23 Este 0 976.1 -- 22
2020-09-08 19:00:00 29 7 Este 25 Este 0 976.2 -- 20
2020-09-08 18:00:00 29 9 Este 30 Este 0 976.4 -- 20
2020-09-08 17:00:00 28.4 11 Este 34 Este 0 976.9 -- 24
2020-09-08 16:00:00 27.9 12 Este 36 Sudeste 0 977.6 -- 23
2020-09-08 15:00:00 26.9 11 Este 33 Sur 0 978.2 -- 27
2020-09-08 14:00:00 25.2 13 Sudeste 32 Sudeste 0 978.8 -- 33
2020-09-08 13:00:00 23.6 9 Este 32 Este 0 979.4 -- 39
2020-09-08 12:00:00 21.2 10 Este 33 Este 0 980 -- 43
2020-09-08 11:00:00 19.1 17 Este 36 Este 0 980.2 -- 39
2020-09-08 10:00:00 17.5 16 Este 33 Este 0 979.9 -- 40
2020-09-08 09:00:00 16.3 18 Este 36 Este 0 979.6 -- 43
2020-09-08 08:00:00 16.2 15 Este 37 Este 0 978.9 -- 43
2020-09-08 07:00:00 16.8 11 Este 33 Este 0 978.3 -- 40
2020-09-08 06:00:00 17.6 15 Este 47 Este 0 977.9 -- 35
2020-09-08 05:00:00 18.6 17 Este 37 Este 0 977.8 -- 31
2020-09-08 04:00:00 19.4 16 Este 32 Este 0 977.8 -- 30
2020-09-08 03:00:00 20.7 17 Este 39 Este 0 977.4 -- 28
2020-09-08 02:00:00 21.3 18 Este 29 Este 0 976.8 -- 29
2020-09-08 01:00:00 21.7 8 Este 20 Este 0 976.4 -- 29
2020-09-08 00:00:00 22.2 8 Este 18 Este 0 976.1 -- 28
2020-09-07 23:00:00 22.5 4 Sudeste 13 Sudoeste 0 975.6 -- 26
2020-09-07 22:00:00 23.5 8 Este 18 Nordeste 0 974.6 -- 23
2020-09-07 21:00:00 26.1 9 Nordeste 24 Este 0 974 -- 17
2020-09-07 20:00:00 28.9 7 Este 27 Este 0 973.6 -- 16
2020-09-07 19:00:00 30.7 9 Este 28 Este 0 973.6 -- 14
2020-09-07 18:00:00 31.3 9 Este 29 Sudeste 0 973.7 -- 13
2020-09-07 17:00:00 31 11 Sudeste 33 Este 0 973.8 -- 14
2020-09-07 16:00:00 29.8 12 Sudeste 30 Este 0 974.5 -- 18
2020-09-07 15:00:00 28.3 14 Este 38 Este 0 975.3 -- 21
2020-09-07 14:00:00 26.9 16 Sudeste 37 Sudeste 0 975.7 -- 23
2020-09-07 13:00:00 24.2 18 Este 39 Este 0 976.1 -- 27
2020-09-07 12:00:00 23.6 21 Sudeste 39 Este 0 976.3 -- 28
2020-09-07 11:00:00 22.1 18 Este 38 Este 0 975.9 -- 32
2020-09-07 10:00:00 20.5 17 Este 33 Este 0 975.5 -- 37
2020-09-07 09:00:00 18.2 7 Este 15 Nordeste 0 974.9 -- 47
2020-09-07 08:00:00 18.1 5 Este 15 Sudeste 0 973.9 -- 49
2020-09-07 07:00:00 18.4 4 Este 10 Nordeste 0 973.4 -- 48
2020-09-07 06:00:00 19.6 5 Nordeste 11 Nordeste 0 973 -- 44
2020-09-07 05:00:00 19.6 4 Este 9 Nordeste 0 972.9 -- 47
2020-09-07 04:00:00 19.9 4 Nordeste 7 Nordeste 0 972.6 -- 49
2020-09-07 03:00:00 18.8 3 Nordeste 16 Este 0 972.7 -- 56
2020-09-07 02:00:00 19.6 3 Norte 9 Sudoeste 0 972.5 -- 55
2020-09-07 01:00:00 20.5 2 Oeste 7 Norte 0 972 -- 53
2020-09-07 00:00:00 22.5 2 Nordeste 8 Norte 0 971.7 -- 44
2020-09-06 23:00:00 24.6 0 Calma 12 Norte 0 971.4 -- 37
2020-09-06 22:00:00 24.8 5 Norte 11 Norte 0 970.7 -- 32
2020-09-06 21:00:00 29.4 2 Oeste 11 Oeste 0 969.9 -- 28
2020-09-06 20:00:00 34.3 5 Oeste 17 Sudoeste 0 970.1 -- 14
2020-09-06 19:00:00 35.4 8 Sudoeste 18 Oeste 0 970.2 -- 13
2020-09-06 18:00:00 35.5 6 Oeste 19 Oeste 0 970.5 -- 13
2020-09-06 17:00:00 35 5 Nordeste 14 Este 0 971.1 -- 18
2020-09-06 16:00:00 33.7 5 Nordeste 21 Este 0 971.8 -- 21
2020-09-06 15:00:00 33 10 Sudeste 25 Sudeste 0 972.4 -- 20
2020-09-06 14:00:00 31.4 13 Sudeste 32 Este 0 973.2 -- 22
2020-09-06 13:00:00 29.9 10 Este 28 Este 0 973.7 -- 24
2020-09-06 12:00:00 28 15 Este 31 Sudeste 0 973.9 -- 28
2020-09-06 11:00:00 25.9 8 Este 19 Este 0 974 -- 32
2020-09-06 10:00:00 23.7 6 Este 21 Este 0 974 -- 37
2020-09-06 09:00:00 21.8 10 Este 27 Este 0 973.8 -- 42
2020-09-06 08:00:00 22.2 11 Este 31 Este 0 973.3 -- 42
2020-09-06 07:00:00 23.1 14 Este 30 Este 0 972.9 -- 41
2020-09-06 06:00:00 23 8 Este 30 Este 0 972.7 -- 47
2020-09-06 05:00:00 23 8 Este 16 Este 0 972.7 -- 44
2020-09-06 04:00:00 21.9 6 Este 21 Este 0 972.7 -- 40
2020-09-06 03:00:00 19.3 6 Este 12 Este 0 972.9 -- 40
2020-09-06 02:00:00 18.2 4 Este 7 Este 0 972.6 -- 49
2020-09-06 01:00:00 18.4 0 Calma 5 Noroeste 0 972.4 -- 56
2020-09-06 00:00:00 19.2 2 Nordeste 4 Oeste 0 972.5 -- 50
2020-09-05 23:00:00 21 0 Calma 2 Nordeste 0 972.4 -- 41
2020-09-05 22:00:00 23.5 0 Calma 5 Nordeste 0 972 -- 37
2020-09-05 21:00:00 27.9 0 Calma 10 Nordeste 0 971.8 -- 32
2020-09-05 20:00:00 32.4 3 Este 22 Este 0 971.8 -- 19
2020-09-05 19:00:00 34.8 6 Este 22 Sudeste 0 972.3 -- 13
2020-09-05 18:00:00 35.1 7 Este 19 Este 0 972.6 -- 12
2020-09-05 17:00:00 34.8 6 Este 22 Este 0 973.3 -- 13
2020-09-05 16:00:00 34.3 8 Este 25 Este 0 974.3 -- 17
2020-09-05 15:00:00 32.8 12 Este 27 Este 0 975.2 -- 24
2020-09-05 14:00:00 30.8 12 Este 28 Este 0 975.7 -- 30
2020-09-05 13:00:00 28.7 12 Este 28 Sudeste 0 976.6 -- 36
2020-09-05 12:00:00 26.8 15 Este 30 Sudeste 0 976.9 -- 42
2020-09-05 11:00:00 24.8 14 Este 27 Sudeste 0 977.1 -- 48
2020-09-05 10:00:00 21.5 5 Este 13 Nordeste 0 977.1 -- 50
2020-09-05 09:00:00 18.1 4 Este 10 Nordeste 0 976.9 -- 57
2020-09-05 08:00:00 16.6 4 Este 16 Nordeste 0 976.6 -- 54
2020-09-05 07:00:00 17.6 5 Este 11 Este 0 976.4 -- 50
2020-09-05 06:00:00 17 4 Este 11 Este 0 976.3 -- 51
2020-09-05 05:00:00 17.8 7 Nordeste 13 Nordeste 0 976.5 -- 47
2020-09-05 04:00:00 18.4 4 Nordeste 10 Este 0 976.4 -- 47
2020-09-05 03:00:00 19.1 3 Nordeste 8 Nordeste 0 976.7 -- 44
2020-09-05 02:00:00 20 3 Nordeste 8 Este 0 976.8 -- 43
2020-09-05 01:00:00 21.2 4 Este 9 Este 0 976.8 -- 37
2020-09-05 00:00:00 20.8 3 Este 6 Este 0 976.8 -- 45
2020-09-04 23:00:00 22.5 3 Este 5 Nordeste 0 976.6 -- 39
2020-09-04 22:00:00 24.3 3 Este 5 Nordeste 0 976.3 -- 37
2020-09-04 21:00:00 28.3 2 Este 18 Este 0 975.8 -- 30
2020-09-04 20:00:00 33.2 9 Este -- -- -- 975.9 -- 16
2020-09-04 19:00:00 34.1 8 Este 17 Este 0 976.1 -- 15
2020-09-04 18:00:00 34.4 6 Este 28 Sudeste 0 976.4 -- 17
2020-09-04 17:00:00 34.4 8 Este 24 Sudeste 0 976.9 -- 19
2020-09-04 16:00:00 33.6 9 Este 25 Este 0 977.7 -- 20
2020-09-04 15:00:00 32.8 10 Este 30 Este 0 978.6 -- 24
2020-09-04 14:00:00 31 15 Este 35 Sudeste 0 979.3 -- 28
2020-09-04 13:00:00 28.9 15 Este 37 Este 0 980.2 -- 32
2020-09-04 12:00:00 27.2 18 Este 39 Sudeste 0 980.4 -- 36
2020-09-04 11:00:00 25.4 18 Este 37 Este 0 980.3 -- 41
2020-09-04 10:00:00 23 9 Este 30 Este 0 980.1 -- 44
2020-09-04 09:00:00 19.5 5 Este 23 Este 0 979.6 -- 50
2020-09-04 08:00:00 18.8 5 Este 17 Este 0 979 -- 50
2020-09-04 07:00:00 19.6 7 Este 18 Este 0 978.5 -- 44
2020-09-04 06:00:00 18.2 5 Nordeste 14 Este 0 978.3 -- 43
2020-09-04 05:00:00 18.8 6 Este 16 Este 0 978.1 -- 40
2020-09-04 04:00:00 18.3 5 Este 9 Nordeste 0 977.5 -- 41
2020-09-04 03:00:00 18.7 3 Este 11 Nordeste 0 977.9 -- 38
2020-09-04 02:00:00 20 4 Este 6 Nordeste 0 977.7 -- 36
2020-09-04 01:00:00 20.8 4 Nordeste 10 Nordeste 0 977.5 -- 35
2020-09-04 00:00:00 21.2 4 Este 8 Este 0 977.3 -- 34
2020-09-03 23:00:00 20.3 3 Este 6 Este 0 977 -- 39
2020-09-03 22:00:00 21.7 2 Este 4 Este 0 976.4 -- 40
2020-09-03 21:00:00 26.4 0 Calma 9 Nordeste 0 975.7 -- 32
2020-09-03 20:00:00 31.6 3 Este 10 Este 0 975.5 -- 16
2020-09-03 19:00:00 33.5 4 Este -- -- -- 975.5 -- 12
2020-09-03 18:00:00 33.4 6 Nordeste 16 Nordeste 0 975.5 -- 18
2020-09-03 17:00:00 33.5 4 Este 17 Norte 0 976 -- 15
2020-09-03 16:00:00 32.8 6 Norte 18 Nordeste 0 976.5 -- 17
2020-09-03 15:00:00 31.8 4 Nordeste 17 Sudeste 0 977.1 -- 21
2020-09-03 14:00:00 30.2 9 Este 27 Este 0 977.6 -- 25
2020-09-03 13:00:00 27.9 14 Este 30 Sudeste 0 977.9 -- 32
2020-09-03 12:00:00 26.3 12 Este 32 Este 0 978.1 -- 38
2020-09-03 11:00:00 23.7 12 Este 26 Este 0 978 -- 43
2020-09-03 10:00:00 21 12 Este 30 Sudeste 0 977.8 -- 46
2020-09-03 09:00:00 16.5 5 Este 14 Este 0 977.2 -- 48
2020-09-03 08:00:00 14.7 6 Nordeste 13 Este 0 976.5 -- 52
2020-09-03 07:00:00 14.8 6 Nordeste 13 Nordeste 0 975.9 -- 53
2020-09-03 06:00:00 14.9 4 Este 9 Nordeste 0 975.5 -- 50
2020-09-03 05:00:00 14.7 4 Este 9 Este 0 975.3 -- 55
2020-09-03 04:00:00 16.3 4 Este 6 Este 0 975 -- 50
2020-09-03 03:00:00 16.8 4 Este 9 Este 0 974.8 -- 47
2020-09-03 02:00:00 16.7 3 Este 4 Este 0 974.5 -- 51
2020-09-03 01:00:00 18.2 3 Este 6 Nordeste 0 974.3 -- 44
2020-09-03 00:00:00 18.1 5 Nordeste 10 Norte 0 974 -- 46
2020-09-02 23:00:00 19.3 0 Calma 4 Norte 0 973.7 -- 47
2020-09-02 22:00:00 21.5 3 Noroeste 4 Norte 0 973 -- 38
2020-09-02 21:00:00 25.2 0 Calma 9 Nordeste 0 972.2 -- 34
2020-09-02 20:00:00 30.4 3 Nordeste 10 Sudoeste 0 971.9 -- 23
2020-09-02 19:00:00 32.5 5 Sudoeste 14 Sudoeste 0 971.6 -- 12
2020-09-02 18:00:00 32.4 4 Sudoeste 14 Sudoeste 0 971.7 -- 14
2020-09-02 17:00:00 31.4 5 Este 13 Norte 0 971.9 -- 15
2020-09-02 16:00:00 30.9 8 Nordeste 24 Sudeste 0 972.3 -- 19
2020-09-02 15:00:00 30.4 7 Este 27 Sudeste 0 972.8 -- 20
2020-09-02 14:00:00 28.9 10 Este 28 Este 0 973.2 -- 26
2020-09-02 13:00:00 27.1 11 Este 30 Este 0 973.4 -- 30
2020-09-02 12:00:00 24.4 16 Este 29 Este 0 973.8 -- 30
2020-09-02 11:00:00 22.1 17 Este 36 Este 0 973.5 -- 32
2020-09-02 10:00:00 20 16 Este 32 Este 0 973 -- 35
2020-09-02 09:00:00 18.6 13 Este 31 Este 0 972.5 -- 38
2020-09-02 08:00:00 18.7 12 Este 29 Este 0 971.9 -- 36
2020-09-02 07:00:00 17.2 8 Este 20 Este 0 971.4 -- 40
2020-09-02 06:00:00 15.9 5 Este 18 Sudeste 0 970.7 -- 44
2020-09-02 05:00:00 16 4 Este 14 Nordeste 0 970.4 -- 43
2020-09-02 04:00:00 14.8 4 Este 14 Este 0 970.3 -- 45
2020-09-02 03:00:00 15.6 4 Este 11 Este 0 969.8 -- 45
2020-09-02 02:00:00 14.4 0 Calma 5 Norte 0 969.6 -- 57
2020-09-02 01:00:00 16.8 0 Calma 4 Nordeste 0 969.3 -- 47
2020-09-02 00:00:00 18.1 0 Calma 4 Nordeste 0 969 -- 38
2020-09-01 23:00:00 18.9 2 Nordeste 4 Este 0 969 -- 42
2020-09-01 22:00:00 21.2 2 Nordeste 4 Sudeste 0 968.6 -- 36
2020-09-01 21:00:00 25.6 0 Calma 10 Noroeste 0 968.1 -- 30
2020-09-01 20:00:00 29.1 4 Oeste 14 Oeste 0 968 -- 23
2020-09-01 19:00:00 31.1 5 Sur 19 Oeste 0 968 -- 12
2020-09-01 18:00:00 30.8 6 Oeste 18 Sudoeste 0 968.2 -- 11
2020-09-01 17:00:00 30.4 9 Oeste 23 Oeste 0 968.6 -- 13
2020-09-01 16:00:00 30.1 8 Sudoeste 22 Oeste 0 969.4 -- 13
2020-09-01 15:00:00 28.2 4 Este 14 Este 0 970 -- 18
2020-09-01 14:00:00 26.8 2 Sudeste 17 Este 0 970.9 -- 19
2020-09-01 13:00:00 26.3 8 Este 20 Este 0 971.2 -- 20
2020-09-01 12:00:00 23.2 8 Este 22 Sudeste 0 971.7 -- 24
2020-09-01 11:00:00 18.5 5 Este 14 Nordeste 0 972.1 -- 38
2020-09-01 10:00:00 16.6 4 Este 11 Nordeste 0 972.1 -- 42
2020-09-01 09:00:00 15.5 3 Este 12 Nordeste 0 971.8 -- 45
2020-09-01 08:00:00 15.2 4 Este 13 Este 0 971.7 -- 47
2020-09-01 07:00:00 15.2 4 Este 12 Este 0 971.7 -- 46
2020-09-01 06:00:00 15.3 3 Este 9 Este 0 971.8 -- 49
2020-09-01 05:00:00 14.8 5 Nordeste 10 Nordeste 0 972.1 -- 51
2020-09-01 04:00:00 14.9 4 Este 9 Nordeste 0 972.2 -- 50
2020-09-01 03:00:00 14.9 5 Nordeste 9 Este 0 973 -- 50
2020-09-01 02:00:00 15 3 Este 7 Nordeste 0 973 -- 51
2020-09-01 01:00:00 13.8 0 Calma 4 Noroeste 0 973 -- 62
2020-09-01 00:00:00 15 0 Calma 4 Sur 0 973 -- 60
2020-08-31 23:00:00 16.4 3 Sur 5 Sur 0 973 -- 54
2020-08-31 22:00:00 18.7 0 Calma 4 Noroeste 0 972.6 -- 49
2020-08-31 21:00:00 23.2 0 Calma 5 Oeste 0 972.3 -- 39
2020-08-31 20:00:00 27.3 3 Norte 10 Oeste 0 972.7 -- 18
2020-08-31 19:00:00 28.4 5 Noroeste 19 Oeste 0 973 -- 13
2020-08-31 18:00:00 28.7 7 Oeste 15 Oeste 0 973.2 -- 13
2020-08-31 17:00:00 27.8 4 Norte 15 Norte 0 974.1 -- 17
2020-08-31 16:00:00 27 5 Este 15 Noroeste 0 974.9 -- 19
2020-08-31 15:00:00 25.6 6 Norte 15 Este 0 975.9 -- 20
2020-08-31 14:00:00 25.1 6 Este 20 Este 0 976.3 -- 23
2020-08-31 13:00:00 23.8 8 Este 25 Este 0 976.9 -- 28
2020-08-31 12:00:00 21.8 11 Este 25 Este 0 977.4 -- 31
2020-08-31 11:00:00 19.2 15 Este 31 Este 0 977.4 -- 36
2020-08-31 10:00:00 17.1 10 Este 24 Este 0 977.1 -- 43
2020-08-31 09:00:00 14.9 11 Este 28 Este 0 976.7 -- 49
2020-08-31 08:00:00 14.8 13 Este 32 Este 0 976.1 -- 48
2020-08-31 07:00:00 13.9 8 Este 27 Este 0 975.7 -- 50
2020-08-31 06:00:00 12.7 5 Nordeste 20 Este 0 975.7 -- 51
2020-08-31 05:00:00 14.9 7 Este 20 Sudeste 0 975.8 -- 40
2020-08-31 04:00:00 13.6 4 Este 8 Nordeste 0 975.7 -- 45
2020-08-31 03:00:00 13.6 2 Nordeste 9 Nordeste 0 975.6 -- 45
2020-08-31 02:00:00 14.6 3 Nordeste 6 Nordeste 0 975.2 -- 42
2020-08-31 01:00:00 16 4 Nordeste 8 Nordeste 0 974.8 -- 39
2020-08-31 00:00:00 16.2 3 Este 6 Nordeste 0 974.1 -- 41
2020-08-30 23:00:00 18.2 3 Este 13 Sudeste 0 973.5 -- 33
2020-08-30 22:00:00 20.9 3 Este 18 Este 0 972.6 -- 26
2020-08-30 21:00:00 21.9 3 Este 8 Este 0 971.5 -- 31
2020-08-30 20:00:00 24.9 4 Nordeste 17 Este 0 971.2 -- 22
2020-08-30 19:00:00 26.3 8 Sudeste 19 Sudeste 0 970.9 -- 17
2020-08-30 18:00:00 26 6 Sudeste 22 Sur 0 970.9 -- 17
2020-08-30 17:00:00 25.6 5 Sudoeste 20 Este 0 971.2 -- 19
2020-08-30 16:00:00 24.7 7 Oeste 18 Sur 0 971.8 -- 18
2020-08-30 15:00:00 24.3 9 Sudeste 19 Sudeste 0 972.3 -- 22
2020-08-30 14:00:00 23.3 8 Este 24 Sudeste 0 972.9 -- 25
2020-08-30 13:00:00 22 12 Este 24 Este 0 973.1 -- 28
2020-08-30 12:00:00 20.9 14 Este 28 Este 0 973.4 -- 31
2020-08-30 11:00:00 19.1 15 Sudeste 30 Sudeste 0 973.1 -- 34
2020-08-30 10:00:00 17.2 7 Este 23 Este 0 972.8 -- 40
2020-08-30 09:00:00 13.3 5 Nordeste 12 Nordeste 0 972.3 -- 57
2020-08-30 08:00:00 12.8 3 Este 21 Sudeste 0 971.9 -- 57
2020-08-30 07:00:00 15.5 10 Sudeste 25 Este 0 971.4 -- 46
2020-08-30 06:00:00 16 12 Sudeste 26 Sudeste 0 970.9 -- 45
2020-08-30 05:00:00 16.4 11 Este 26 Este 0 970.6 -- 45
2020-08-30 04:00:00 16.9 10 Este 21 Este 0 970.3 -- 46
2020-08-30 03:00:00 16.1 6 Este 20 Este 0 970.1 -- 49
2020-08-30 02:00:00 16.8 6 Este 19 Este 0 969.8 -- 48
2020-08-30 01:00:00 16.1 2 Este 8 Este 0 969.1 -- 46
2020-08-30 00:00:00 17.7 3 Este 11 Norte 0 968.6 -- 37
2020-08-29 23:00:00 19.2 5 Norte 17 Norte 0 968.2 -- 33
2020-08-29 22:00:00 21.6 9 Nordeste 27 Norte 0 967.5 -- 27
2020-08-29 21:00:00 23.1 14 Norte 36 Norte 0 966.9 -- 24
2020-08-29 20:00:00 24.8 10 Norte 22 Nordeste 0 966.3 -- 23
2020-08-29 19:00:00 25.4 10 Nordeste 28 Nordeste 0 966 -- 20
2020-08-29 18:00:00 26.1 12 Norte 32 Norte 0 965.7 -- 20
2020-08-29 17:00:00 24.9 9 Norte 30 Norte 0 965.8 -- 20
2020-08-29 16:00:00 26.3 6 Norte 28 Norte 0 966 -- 20
2020-08-29 15:00:00 25 7 Nordeste 25 Oeste 0 966.3 -- 24
2020-08-29 14:00:00 24.4 6 Este 15 Sudeste 0 966.3 -- 25
2020-08-29 13:00:00 23.5 7 Sudoeste 26 Oeste 0 966.7 -- 27
2020-08-29 12:00:00 22.4 8 Oeste 15 Oeste 0 966.8 -- 30
2020-08-29 11:00:00 21.1 4 Oeste 12 Sudoeste 0 966.5 -- 34
2020-08-29 10:00:00 18.9 5 Sur 12 Oeste 0 966.2 -- 42
2020-08-29 09:00:00 14.3 3 Oeste 10 Oeste 0 965.6 -- 62
2020-08-29 08:00:00 14.1 5 Oeste 9 Oeste 0 965 -- 56
2020-08-29 07:00:00 13.6 4 Oeste 8 Noroeste 0 964.4 -- 58
2020-08-29 06:00:00 15.1 3 Oeste 9 Nordeste 0 963.8 -- 52
2020-08-29 05:00:00 16.7 5 Norte 9 Norte 0 963.6 -- 45
2020-08-29 04:00:00 19.4 3 Este 21 Nordeste 0 963.4 -- 33
2020-08-29 03:00:00 20.9 9 Nordeste 22 Norte 0 963.3 -- 29
2020-08-29 02:00:00 21.8 5 Nordeste 17 Noroeste 0 963.2 -- 28
2020-08-29 01:00:00 22.4 8 Oeste 21 Oeste 0 963.3 -- 24
2020-08-29 00:00:00 24.2 13 Oeste 22 Oeste 0 963 -- 23
2020-08-28 23:00:00 25 5 Noroeste 25 Oeste 0 963.1 -- 22
2020-08-28 22:00:00 27.1 13 Oeste 35 Oeste 0 962.7 -- 18
2020-08-28 21:00:00 28.8 18 Oeste 51 Oeste 0 962.5 -- 13
2020-08-28 20:00:00 30.4 23 Oeste 49 Noroeste 0 962.7 -- 13
2020-08-28 19:00:00 31.5 31 Oeste 49 Oeste 0 962.7 -- 13
2020-08-28 18:00:00 32.7 28 Oeste 51 Oeste 0 962.9 -- 13
2020-08-28 17:00:00 33.7 24 Oeste 49 Oeste 0 963.7 -- 11
2020-08-28 16:00:00 32.7 25 Oeste 44 Oeste 0 964.4 -- 16
2020-08-28 15:00:00 33.3 20 Oeste 40 Oeste 0 964.9 -- 20
2020-08-28 14:00:00 32.7 11 Noroeste 36 Oeste 0 965.7 -- 26
2020-08-28 13:00:00 30.4 13 Oeste 30 Noroeste 0 966.6 -- 30
2020-08-28 12:00:00 28.8 16 Oeste 32 Oeste 0 967.1 -- 34
2020-08-28 11:00:00 27.4 10 Oeste 22 Noroeste 0 967 -- 41
2020-08-28 10:00:00 24.2 0 Calma 8 Este 0 967.2 -- 46
2020-08-28 09:00:00 18.8 2 Este 9 Nordeste 0 967.4 -- 63
2020-08-28 08:00:00 17.7 0 Calma 4 Nordeste 0 967.2 -- 69
2020-08-28 07:00:00 18.2 2 Este 4 Nordeste 0 967.4 -- 66
2020-08-28 06:00:00 18.9 2 Sudeste 4 Sudeste 0 967.5 -- 63
2020-08-28 05:00:00 20.2 0 Calma 6 Sudeste 0 967.8 -- 59
2020-08-28 04:00:00 21.4 2 Norte 7 Oeste 0 968.2 -- 55
2020-08-28 03:00:00 25.4 6 Oeste 16 Sudoeste 0 968.8 -- 37
2020-08-28 02:00:00 28.2 5 Sudoeste 29 Noroeste 0 969 -- 28
2020-08-28 01:00:00 29.1 9 Sudoeste 28 Norte 0 969.3 -- 26
2020-08-28 00:00:00 30.9 14 Norte 29 Norte 0 969 -- 22
2020-08-27 23:00:00 26.8 4 Sudoeste 12 Sur 0 969.4 -- 34
2020-08-27 22:00:00 29 2 Noroeste 9 Oeste 0 969.4 -- 28
2020-08-27 21:00:00 32.8 4 Noroeste 14 Oeste 0 969.1 -- 22
2020-08-27 20:00:00 37.6 8 Noroeste 23 Oeste 0 969.2 -- 13
2020-08-27 19:00:00 38.7 12 Oeste 27 Oeste 0 969.8 -- 11
2020-08-27 18:00:00 38.8 12 Oeste 29 Oeste 0 970.4 -- 10
2020-08-27 17:00:00 38.9 11 Oeste 28 Oeste 0 971.1 -- 11
2020-08-27 16:00:00 38.3 8 Oeste 20 Oeste 0 972.1 -- 12
2020-08-27 15:00:00 37 9 Oeste 19 Oeste 0 973.2 -- 13
2020-08-27 14:00:00 34.8 5 Nordeste 10 Norte 0 973.8 -- 16
2020-08-27 13:00:00 32.6 4 Norte 8 Norte 0 974.5 -- 19
2020-08-27 12:00:00 30.7 3 Sur 7 Sudeste 0 974.9 -- 21
2020-08-27 11:00:00 26.7 3 Este 9 Este 0 975 -- 28
2020-08-27 10:00:00 22.8 4 Este 12 Este 0 974.9 -- 33
2020-08-27 09:00:00 17.9 3 Este 8 Nordeste 0 974.7 -- 52
2020-08-27 08:00:00 16.9 3 Este 7 Nordeste 0 974.6 -- 53
2020-08-27 07:00:00 17.8 4 Este 9 Nordeste 0 974.3 -- 51
2020-08-27 06:00:00 17.9 3 Este 5 Este 0 974.1 -- 52
2020-08-27 05:00:00 17.5 2 Este 4 Nordeste 0 974.4 -- 57
2020-08-27 04:00:00 17.1 0 Calma 5 Este 0 974.6 -- 62
2020-08-27 03:00:00 17.9 2 Este 5 Nordeste 0 974.7 -- 57
2020-08-27 02:00:00 19 2 Sudoeste 4 Oeste 0 974.5 -- 54
2020-08-27 01:00:00 20.2 3 Oeste 5 Oeste 0 974.7 -- 53
2020-08-27 00:00:00 22 0 Calma 8 Sudoeste 0 974.7 -- 48
2020-08-26 23:00:00 24.3 2 Sur 5 Sudoeste 0 974.4 -- 34
2020-08-26 22:00:00 27.9 3 Sur 7 Oeste 0 973.8 -- 27
2020-08-26 21:00:00 33.3 5 Noroeste 26 Noroeste 0 973.4 -- 14
2020-08-26 20:00:00 37 14 Oeste 30 Oeste 0 973.1 -- 11
2020-08-26 19:00:00 38.8 10 Oeste 31 Noroeste 0 973.3 -- 11
2020-08-26 18:00:00 39.1 10 Noroeste 31 Oeste 0 973.5 -- 10
2020-08-26 17:00:00 38.9 11 Oeste 30 Oeste 0 973.9 -- 12
2020-08-26 16:00:00 38.1 10 Sudoeste 31 Oeste 0 974.1 -- 13
2020-08-26 15:00:00 37.8 9 Oeste 27 Oeste 0 974.6 -- 13
2020-08-26 14:00:00 35.8 8 Oeste 17 Oeste 0 975.1 -- 15
2020-08-26 13:00:00 32.8 4 Nordeste 12 Nordeste 0 975.6 -- 21
2020-08-26 12:00:00 30 5 Nordeste 12 Nordeste 0 975.7 -- 26
2020-08-26 11:00:00 26.6 5 Este 14 Este 0 975.4 -- 31
2020-08-26 10:00:00 23.1 4 Este 9 Este 0 975 -- 41
2020-08-26 09:00:00 18.4 2 Este 8 Noroeste 0 974.6 -- 58
2020-08-26 08:00:00 16.9 0 Calma 4 Nordeste 0 974.2 -- 63
2020-08-26 07:00:00 17.1 0 Calma 5 Sudeste 0 973.8 -- 62
2020-08-26 06:00:00 17.6 2 Este 4 Sudeste 0 973.6 -- 62
2020-08-26 05:00:00 19.8 2 Este 8 Nordeste 0 973.4 -- 50
2020-08-26 04:00:00 19.6 2 Este 6 Nordeste 0 973.1 -- 56
2020-08-26 03:00:00 19.8 3 Este 8 Este 0 973.1 -- 59
2020-08-26 02:00:00 20.1 2 Sudoeste 6 Noroeste 0 973 -- 58
2020-08-26 01:00:00 21.1 4 Noroeste 6 Noroeste 0 972.9 -- 53
2020-08-26 00:00:00 22.4 0 Calma 6 Sur 0 972.6 -- 51
2020-08-25 23:00:00 24.2 0 Calma 6 Sur 0 972.2 -- 43
2020-08-25 22:00:00 27.1 0 Calma 6 Noroeste 0 971.2 -- 33
2020-08-25 21:00:00 32.4 3 Noroeste 19 Oeste 0 970.6 -- 24
2020-08-25 20:00:00 36.8 13 Oeste 26 Oeste 0 970.4 -- 13
2020-08-25 19:00:00 37.9 17 Oeste 33 Oeste 0 970.6 -- 12
2020-08-25 18:00:00 38.8 15 Oeste 27 Oeste 0 970.7 -- 11
2020-08-25 17:00:00 38.2 9 Oeste 32 Oeste 0 971.2 -- 12
2020-08-25 16:00:00 37.5 13 Oeste 30 Oeste 0 971.7 -- 13
2020-08-25 15:00:00 36.1 8 Oeste 18 Oeste 0 972.2 -- 14
2020-08-25 14:00:00 33.7 4 Nordeste 13 Nordeste 0 972.8 -- 23
2020-08-25 13:00:00 31.6 6 Este 17 Este 0 973 -- 35
2020-08-25 12:00:00 29.1 7 Este 19 Este 0 973.1 -- 38
2020-08-25 11:00:00 25.8 5 Este 13 Nordeste 0 973 -- 40
2020-08-25 10:00:00 22.8 5 Este 14 Este 0 972.7 -- 44
2020-08-25 09:00:00 18.7 3 Este 12 Este 0 972.3 -- 58
2020-08-25 08:00:00 18.1 5 Este 14 Este 0 971.8 -- 61
2020-08-25 07:00:00 19.3 6 Nordeste 14 Nordeste 0 971.5 -- 52
2020-08-25 06:00:00 19 3 Este 7 Nordeste 0 971.6 -- 58
2020-08-25 05:00:00 19.6 4 Este 6 Nordeste 0 971.1 -- 57
2020-08-25 04:00:00 20.2 5 Este 7 Este 0 970.9 -- 57
2020-08-25 03:00:00 20.3 3 Nordeste 6 Nordeste 0 971 -- 57
2020-08-25 02:00:00 20.4 0 Calma 14 Oeste 0 971.2 -- 59
2020-08-25 01:00:00 20.7 2 Este 5 Este 0 971 -- 59
2020-08-25 00:00:00 22 3 Oeste 4 Oeste 0 970.9 -- 58
2020-08-24 23:00:00 23.6 0 Calma 4 Sur 0 970.5 -- 50
2020-08-24 22:00:00 25.9 2 Noroeste 6 Noroeste 0 970 -- 43
2020-08-24 21:00:00 29.8 0 Calma 8 Noroeste 0 969.6 -- 36
2020-08-24 20:00:00 35 3 Noroeste 8 Nordeste 0 969.7 -- 26
2020-08-24 19:00:00 35.8 3 Nordeste 12 Norte 0 970.1 -- 17
2020-08-24 18:00:00 36.3 4 Noroeste 13 Norte 0 970.6 -- 15
2020-08-24 17:00:00 35.1 5 Este 14 Nordeste 0 971 -- 19
2020-08-24 16:00:00 34.8 5 Sudoeste 18 Este 0 971.9 -- 23
2020-08-24 15:00:00 33.6 8 Este 24 Este 0 972.4 -- 27
2020-08-24 14:00:00 32.5 12 Este 30 Este 0 973 -- 33
2020-08-24 13:00:00 30.7 13 Este 29 Sudeste 0 973.7 -- 40
2020-08-24 12:00:00 28.7 15 Este 30 Sudeste 0 974.2 -- 42
2020-08-24 11:00:00 26.9 12 Este 25 Este 0 974.2 -- 36
2020-08-24 10:00:00 23.9 8 Este 18 Este 0 974.2 -- 36
2020-08-24 09:00:00 19.1 2 Este 9 Nordeste 0 973.8 -- 46
2020-08-24 08:00:00 18.3 2 Este 11 Nordeste 0 973.5 -- 46
2020-08-24 07:00:00 17.4 3 Nordeste 9 Nordeste 0 973.2 -- 49
2020-08-24 06:00:00 17.7 2 Nordeste 8 Nordeste 0 973 -- 47
2020-08-24 05:00:00 17 3 Este 9 Sudeste 0 972.9 -- 53
2020-08-24 04:00:00 16.6 0 Calma 6 Este 0 973.1 -- 59
2020-08-24 03:00:00 16.7 0 Calma 4 Noroeste 0 973.3 -- 60
2020-08-24 02:00:00 17.7 2 Noroeste 4 Noroeste 0 973.1 -- 54
2020-08-24 01:00:00 19.1 0 Calma 4 Este 0 972.9 -- 51
2020-08-24 00:00:00 21.3 0 Calma 9 Sudeste 0 973.1 -- 39